sensor_id;sensor_type;location;lat;lon;timestamp;temperature;humidity
1590;DHT22;788;48.720;9.158;2022-11-04T00:00:07;10.60;99.90
1590;DHT22;788;48.720;9.158;2022-11-04T00:02:35;10.60;99.90
1590;DHT22;788;48.720;9.158;2022-11-04T00:05:12;10.40;99.90
1590;DHT22;788;48.720;9.158;2022-11-04T00:07:45;10.40;99.90
1590;DHT22;788;48.720;9.158;2022-11-04T00:10:32;10.30;99.90
1590;DHT22;788;48.720;9.158;2022-11-04T00:13:19;10.40;99.90
1590;DHT22;788;48.720;9.158;2022-11-04T00:16:00;10.50;99.90
1590;DHT22;788;48.720;9.158;2022-11-04T00:18:50;10.60;99.90
1590;DHT22;788;48.720;9.158;2022-11-04T00:21:19;10.60;99.90
1590;DHT22;788;48.720;9.158;2022-11-04T00:24:21;10.60;99.90
1590;DHT22;788;48.720;9.158;2022-11-04T00:27:07;10.40;99.90
1590;DHT22;788;48.720;9.158;2022-11-04T00:30:37;10.50;99.90
1590;DHT22;788;48.720;9.158;2022-11-04T00:33:06;10.50;99.90
1590;DHT22;788;48.720;9.158;2022-11-04T00:35:53;10.40;99.90
1590;DHT22;788;48.720;9.158;2022-11-04T00:38:30;10.30;99.90
1590;DHT22;788;48.720;9.158;2022-11-04T00:41:04;10.40;99.90
1590;DHT22;788;48.720;9.158;2022-11-04T00:43:51;10.30;99.90
1590;DHT22;788;48.720;9.158;2022-11-04T00:46:22;10.30;99.90
1590;DHT22;788;48.720;9.158;2022-11-04T00:48:56;10.40;99.90
1590;DHT22;788;48.720;9.158;2022-11-04T00:51:39;10.40;99.90
1590;DHT22;788;48.720;9.158;2022-11-04T00:54:15;10.40;99.90
1590;DHT22;788;48.720;9.158;2022-11-04T00:57:14;10.40;99.90
1590;DHT22;788;48.720;9.158;2022-11-04T00:59:54;10.50;99.90
1590;DHT22;788;48.720;9.158;2022-11-04T01:02:22;10.40;99.90
1590;DHT22;788;48.720;9.158;2022-11-04T01:05:14;10.40;99.90
1590;DHT22;788;48.720;9.158;2022-11-04T01:07:40;10.50;99.90
1590;DHT22;788;48.720;9.158;2022-11-04T01:10:30;10.50;99.90
1590;DHT22;788;48.720;9.158;2022-11-04T01:13:00;10.50;99.90
1590;DHT22;788;48.720;9.158;2022-11-04T01:16:03;10.40;99.90
1590;DHT22;788;48.720;9.158;2022-11-04T01:18:31;10.30;99.90
1590;DHT22;788;48.720;9.158;2022-11-04T01:21:05;10.20;99.90
1590;DHT22;788;48.720;9.158;2022-11-04T01:23:54;10.20;99.90
1590;DHT22;788;48.720;9.158;2022-11-04T01:29:31;10.40;99.90
1590;DHT22;788;48.720;9.158;2022-11-04T01:32:17;10.50;99.90
1590;DHT22;788;48.720;9.158;2022-11-04T01:34:45;10.50;99.90
1590;DHT22;788;48.720;9.158;2022-11-04T01:37:12;10.50;99.90
1590;DHT22;788;48.720;9.158;2022-11-04T01:39:38;10.60;99.90
1590;DHT22;788;48.720;9.158;2022-11-04T01:42:05;10.60;99.90
1590;DHT22;788;48.720;9.158;2022-11-04T01:44:57;10.50;99.90
1590;DHT22;788;48.720;9.158;2022-11-04T01:47:34;10.50;99.90
1590;DHT22;788;48.720;9.158;2022-11-04T01:50:06;10.50;99.90
1590;DHT22;788;48.720;9.158;2022-11-04T01:52:36;10.50;99.90
1590;DHT22;788;48.720;9.158;2022-11-04T01:55:10;10.50;99.90
1590;DHT22;788;48.720;9.158;2022-11-04T01:57:40;10.40;99.90
1590;DHT22;788;48.720;9.158;2022-11-04T02:00:10;10.50;99.90
1590;DHT22;788;48.720;9.158;2022-11-04T02:02:43;10.50;99.90
1590;DHT22;788;48.720;9.158;2022-11-04T02:05:12;10.40;99.90
1590;DHT22;788;48.720;9.158;2022-11-04T02:07:39;10.30;99.90
1590;DHT22;788;48.720;9.158;2022-11-04T02:10:06;10.30;99.90
1590;DHT22;788;48.720;9.158;2022-11-04T02:12:33;10.30;99.90
1590;DHT22;788;48.720;9.158;2022-11-04T02:15:16;10.20;99.90
1590;DHT22;788;48.720;9.158;2022-11-04T02:18:01;10.20;99.90
1590;DHT22;788;48.720;9.158;2022-11-04T02:20:59;10.10;99.90
1590;DHT22;788;48.720;9.158;2022-11-04T02:23:57;10.10;99.90
1590;DHT22;788;48.720;9.158;2022-11-04T02:30:00;10.00;99.90
1590;DHT22;788;48.720;9.158;2022-11-04T02:32:46;10.00;99.90
1590;DHT22;788;48.720;9.158;2022-11-04T02:35:22;9.90;99.90
1590;DHT22;788;48.720;9.158;2022-11-04T02:37:55;9.90;99.90
1590;DHT22;788;48.720;9.158;2022-11-04T02:40:29;9.90;99.90
1590;DHT22;788;48.720;9.158;2022-11-04T02:43:01;9.90;99.90
1590;DHT22;788;48.720;9.158;2022-11-04T02:45:35;9.90;99.90
1590;DHT22;788;48.720;9.158;2022-11-04T02:48:08;9.80;99.90
1590;DHT22;788;48.720;9.158;2022-11-04T02:50:41;9.90;99.90
1590;DHT22;788;48.720;9.158;2022-11-04T02:53:13;10.00;99.90
1590;DHT22;788;48.720;9.158;2022-11-04T02:55:45;9.80;99.90
1590;DHT22;788;48.720;9.158;2022-11-04T02:58:16;9.90;99.90
1590;DHT22;788;48.720;9.158;2022-11-04T03:00:46;9.90;99.90
1590;DHT22;788;48.720;9.158;2022-11-04T03:03:19;10.00;99.90
1590;DHT22;788;48.720;9.158;2022-11-04T03:05:49;9.80;99.90
1590;DHT22;788;48.720;9.158;2022-11-04T03:08:22;9.90;99.90
1590;DHT22;788;48.720;9.158;2022-11-04T03:10:51;9.90;99.90
1590;DHT22;788;48.720;9.158;2022-11-04T03:13:23;9.90;99.90
1590;DHT22;788;48.720;9.158;2022-11-04T03:15:56;9.90;99.90
1590;DHT22;788;48.720;9.158;2022-11-04T03:18:31;10.00;99.90
1590;DHT22;788;48.720;9.158;2022-11-04T03:21:01;10.10;99.90
1590;DHT22;788;48.720;9.158;2022-11-04T03:23:28;10.10;99.90
1590;DHT22;788;48.720;9.158;2022-11-04T03:26:01;10.20;99.90
1590;DHT22;788;48.720;9.158;2022-11-04T03:28:36;10.20;99.90
1590;DHT22;788;48.720;9.158;2022-11-04T03:31:08;10.20;99.90
1590;DHT22;788;48.720;9.158;2022-11-04T03:33:41;10.20;99.90
1590;DHT22;788;48.720;9.158;2022-11-04T03:36:10;10.20;99.90
1590;DHT22;788;48.720;9.158;2022-11-04T03:38:37;10.00;99.90
1590;DHT22;788;48.720;9.158;2022-11-04T03:41:09;10.00;99.90
1590;DHT22;788;48.720;9.158;2022-11-04T03:43:40;9.90;99.90
1590;DHT22;788;48.720;9.158;2022-11-04T03:46:20;9.80;99.90
1590;DHT22;788;48.720;9.158;2022-11-04T03:49:17;9.70;99.90
1590;DHT22;788;48.720;9.158;2022-11-04T03:52:00;9.70;99.90
1590;DHT22;788;48.720;9.158;2022-11-04T03:54:27;9.70;99.90
1590;DHT22;788;48.720;9.158;2022-11-04T03:57:16;9.70;99.90
1590;DHT22;788;48.720;9.158;2022-11-04T04:00:03;9.70;99.90
1590;DHT22;788;48.720;9.158;2022-11-04T04:13:01;9.70;99.90
1590;DHT22;788;48.720;9.158;2022-11-04T04:15:42;9.80;99.90
1590;DHT22;788;48.720;9.158;2022-11-04T04:18:48;9.70;99.90
1590;DHT22;788;48.720;9.158;2022-11-04T04:22:12;9.70;99.90
1590;DHT22;788;48.720;9.158;2022-11-04T04:25:16;9.70;99.90
1590;DHT22;788;48.720;9.158;2022-11-04T04:28:49;9.50;99.90
1590;DHT22;788;48.720;9.158;2022-11-04T04:31:40;9.60;99.90
1590;DHT22;788;48.720;9.158;2022-11-04T04:34:25;9.70;99.90
1590;DHT22;788;48.720;9.158;2022-11-04T04:40:59;9.80;99.90
1590;DHT22;788;48.720;9.158;2022-11-04T04:50:45;9.70;99.90
1590;DHT22;788;48.720;9.158;2022-11-04T04:53:14;9.70;99.90
1590;DHT22;788;48.720;9.158;2022-11-04T04:55:41;9.70;99.90
1590;DHT22;788;48.720;9.158;2022-11-04T04:58:07;9.70;99.90
1590;DHT22;788;48.720;9.158;2022-11-04T05:00:34;9.70;99.90
1590;DHT22;788;48.720;9.158;2022-11-04T05:03:01;9.70;99.90
1590;DHT22;788;48.720;9.158;2022-11-04T05:05:28;9.70;99.90
1590;DHT22;788;48.720;9.158;2022-11-04T05:11:08;9.70;99.90
1590;DHT22;788;48.720;9.158;2022-11-04T05:14:07;9.70;99.90
1590;DHT22;788;48.720;9.158;2022-11-04T05:17:08;9.60;99.90
1590;DHT22;788;48.720;9.158;2022-11-04T05:22:46;9.60;99.90
1590;DHT22;788;48.720;9.158;2022-11-04T05:25:32;9.60;99.90
1590;DHT22;788;48.720;9.158;2022-11-04T05:27:59;9.60;99.90
1590;DHT22;788;48.720;9.158;2022-11-04T05:30:26;9.60;99.90
1590;DHT22;788;48.720;9.158;2022-11-04T05:32:53;9.50;99.90
1590;DHT22;788;48.720;9.158;2022-11-04T05:35:20;9.50;99.90
1590;DHT22;788;48.720;9.158;2022-11-04T05:37:46;9.50;99.90
1590;DHT22;788;48.720;9.158;2022-11-04T05:40:13;9.40;99.90
1590;DHT22;788;48.720;9.158;2022-11-04T05:42:42;9.40;99.90
1590;DHT22;788;48.720;9.158;2022-11-04T05:45:09;9.30;99.90
1590;DHT22;788;48.720;9.158;2022-11-04T05:47:36;9.30;99.90
1590;DHT22;788;48.720;9.158;2022-11-04T05:50:03;9.30;99.90
1590;DHT22;788;48.720;9.158;2022-11-04T05:52:30;9.30;99.90
1590;DHT22;788;48.720;9.158;2022-11-04T05:54:57;9.30;99.90
1590;DHT22;788;48.720;9.158;2022-11-04T05:57:23;9.30;99.90
1590;DHT22;788;48.720;9.158;2022-11-04T05:59:51;9.30;99.90
1590;DHT22;788;48.720;9.158;2022-11-04T06:02:18;9.30;99.90
1590;DHT22;788;48.720;9.158;2022-11-04T06:04:45;9.30;99.90
1590;DHT22;788;48.720;9.158;2022-11-04T06:07:12;9.30;99.90
1590;DHT22;788;48.720;9.158;2022-11-04T06:09:38;9.30;99.90
1590;DHT22;788;48.720;9.158;2022-11-04T06:12:07;9.30;99.90
1590;DHT22;788;48.720;9.158;2022-11-04T06:14:34;9.20;99.90
1590;DHT22;788;48.720;9.158;2022-11-04T06:20:28;9.20;99.90
1590;DHT22;788;48.720;9.158;2022-11-04T06:22:57;9.20;99.90
1590;DHT22;788;48.720;9.158;2022-11-04T06:25:26;9.20;99.90
1590;DHT22;788;48.720;9.158;2022-11-04T06:28:06;9.20;99.90
1590;DHT22;788;48.720;9.158;2022-11-04T06:30:38;9.10;99.90
1590;DHT22;788;48.720;9.158;2022-11-04T06:33:26;9.10;99.90
1590;DHT22;788;48.720;9.158;2022-11-04T06:36:04;9.10;99.90
1590;DHT22;788;48.720;9.158;2022-11-04T06:38:42;9.10;99.90
1590;DHT22;788;48.720;9.158;2022-11-04T06:41:27;9.10;99.90
1590;DHT22;788;48.720;9.158;2022-11-04T06:44:00;9.00;99.90
1590;DHT22;788;48.720;9.158;2022-11-04T06:46:34;9.00;99.90
1590;DHT22;788;48.720;9.158;2022-11-04T06:49:01;9.00;99.90
1590;DHT22;788;48.720;9.158;2022-11-04T06:51:30;9.00;99.90
1590;DHT22;788;48.720;9.158;2022-11-04T06:53:57;9.10;99.90
1590;DHT22;788;48.720;9.158;2022-11-04T06:56:25;9.10;99.90
1590;DHT22;788;48.720;9.158;2022-11-04T06:58:53;9.10;99.90
1590;DHT22;788;48.720;9.158;2022-11-04T07:01:22;9.10;99.90
1590;DHT22;788;48.720;9.158;2022-11-04T07:03:50;9.10;99.90
1590;DHT22;788;48.720;9.158;2022-11-04T07:06:17;9.10;99.90
1590;DHT22;788;48.720;9.158;2022-11-04T07:08:46;9.10;99.90
1590;DHT22;788;48.720;9.158;2022-11-04T07:11:14;9.10;99.90
1590;DHT22;788;48.720;9.158;2022-11-04T07:13:41;9.20;99.90
1590;DHT22;788;48.720;9.158;2022-11-04T07:16:08;9.20;99.90
1590;DHT22;788;48.720;9.158;2022-11-04T07:18:35;9.30;99.90
1590;DHT22;788;48.720;9.158;2022-11-04T07:21:03;9.40;99.90
1590;DHT22;788;48.720;9.158;2022-11-04T07:23:30;9.50;99.90
1590;DHT22;788;48.720;9.158;2022-11-04T07:26:00;9.50;99.90
1590;DHT22;788;48.720;9.158;2022-11-04T07:28:27;9.50;99.90
1590;DHT22;788;48.720;9.158;2022-11-04T07:30:55;9.60;99.90
1590;DHT22;788;48.720;9.158;2022-11-04T07:33:23;9.60;99.90
1590;DHT22;788;48.720;9.158;2022-11-04T07:35:50;9.70;99.90
1590;DHT22;788;48.720;9.158;2022-11-04T07:38:17;9.70;99.90
1590;DHT22;788;48.720;9.158;2022-11-04T07:40:44;9.80;99.90
1590;DHT22;788;48.720;9.158;2022-11-04T07:46:28;9.90;99.90
1590;DHT22;788;48.720;9.158;2022-11-04T07:48:56;10.00;99.90
1590;DHT22;788;48.720;9.158;2022-11-04T07:51:24;10.00;99.90
1590;DHT22;788;48.720;9.158;2022-11-04T07:53:54;10.10;99.90
1590;DHT22;788;48.720;9.158;2022-11-04T07:56:21;10.10;99.90
1590;DHT22;788;48.720;9.158;2022-11-04T07:58:48;10.20;99.90
1590;DHT22;788;48.720;9.158;2022-11-04T08:01:17;10.10;99.90
1590;DHT22;788;48.720;9.158;2022-11-04T08:03:46;10.10;99.90
1590;DHT22;788;48.720;9.158;2022-11-04T08:06:15;10.20;99.90
1590;DHT22;788;48.720;9.158;2022-11-04T08:08:42;10.30;99.90
1590;DHT22;788;48.720;9.158;2022-11-04T08:11:11;10.20;99.90
1590;DHT22;788;48.720;9.158;2022-11-04T08:13:38;10.20;99.90
1590;DHT22;788;48.720;9.158;2022-11-04T08:16:07;10.30;99.90
1590;DHT22;788;48.720;9.158;2022-11-04T08:18:47;10.30;99.90
1590;DHT22;788;48.720;9.158;2022-11-04T08:21:37;10.40;99.90
1590;DHT22;788;48.720;9.158;2022-11-04T08:24:14;10.40;99.90
1590;DHT22;788;48.720;9.158;2022-11-04T08:26:48;10.40;99.90
1590;DHT22;788;48.720;9.158;2022-11-04T08:29:33;10.50;99.90
1590;DHT22;788;48.720;9.158;2022-11-04T08:32:26;10.50;99.90
1590;DHT22;788;48.720;9.158;2022-11-04T08:34:55;10.50;99.90
1590;DHT22;788;48.720;9.158;2022-11-04T08:37:21;10.40;99.90
1590;DHT22;788;48.720;9.158;2022-11-04T08:39:48;10.50;99.90
1590;DHT22;788;48.720;9.158;2022-11-04T08:42:15;10.50;99.90
1590;DHT22;788;48.720;9.158;2022-11-04T08:44:42;10.60;99.90
1590;DHT22;788;48.720;9.158;2022-11-04T08:47:09;10.70;99.90
1590;DHT22;788;48.720;9.158;2022-11-04T08:49:39;10.80;99.90
1590;DHT22;788;48.720;9.158;2022-11-04T08:52:07;11.00;99.90
1590;DHT22;788;48.720;9.158;2022-11-04T08:54:34;11.10;99.90
1590;DHT22;788;48.720;9.158;2022-11-04T08:57:02;11.10;99.90
1590;DHT22;788;48.720;9.158;2022-11-04T08:59:28;11.20;99.90
1590;DHT22;788;48.720;9.158;2022-11-04T09:01:55;11.20;99.90
1590;DHT22;788;48.720;9.158;2022-11-04T09:04:22;11.30;99.90
1590;DHT22;788;48.720;9.158;2022-11-04T09:06:49;11.30;99.90
1590;DHT22;788;48.720;9.158;2022-11-04T09:09:18;11.30;99.90
1590;DHT22;788;48.720;9.158;2022-11-04T09:11:46;11.20;99.90
1590;DHT22;788;48.720;9.158;2022-11-04T09:14:13;11.30;99.90
1590;DHT22;788;48.720;9.158;2022-11-04T09:16:40;11.30;99.90
1590;DHT22;788;48.720;9.158;2022-11-04T09:19:08;11.40;99.90
1590;DHT22;788;48.720;9.158;2022-11-04T09:21:35;11.20;99.90
1590;DHT22;788;48.720;9.158;2022-11-04T09:24:02;11.20;99.90
1590;DHT22;788;48.720;9.158;2022-11-04T09:26:31;11.20;99.90
1590;DHT22;788;48.720;9.158;2022-11-04T09:28:59;11.20;99.90
1590;DHT22;788;48.720;9.158;2022-11-04T09:31:27;11.30;99.90
1590;DHT22;788;48.720;9.158;2022-11-04T09:33:55;11.40;99.90
1590;DHT22;788;48.720;9.158;2022-11-04T09:36:22;11.50;99.90
1590;DHT22;788;48.720;9.158;2022-11-04T09:38:49;11.30;99.90
1590;DHT22;788;48.720;9.158;2022-11-04T09:41:33;11.40;99.90
1590;DHT22;788;48.720;9.158;2022-11-04T09:44:14;11.40;99.90
1590;DHT22;788;48.720;9.158;2022-11-04T09:46:44;11.50;99.90
1590;DHT22;788;48.720;9.158;2022-11-04T09:49:13;11.60;99.90
1590;DHT22;788;48.720;9.158;2022-11-04T09:51:42;11.70;99.90
1590;DHT22;788;48.720;9.158;2022-11-04T09:54:15;11.80;99.90
1590;DHT22;788;48.720;9.158;2022-11-04T09:56:47;11.80;99.90
1590;DHT22;788;48.720;9.158;2022-11-04T09:59:21;11.80;99.90
1590;DHT22;788;48.720;9.158;2022-11-04T10:01:59;12.00;99.90
1590;DHT22;788;48.720;9.158;2022-11-04T10:04:38;12.20;99.90
1590;DHT22;788;48.720;9.158;2022-11-04T10:07:17;12.10;99.90
1590;DHT22;788;48.720;9.158;2022-11-04T10:13:22;12.40;99.90
1590;DHT22;788;48.720;9.158;2022-11-04T10:16:26;12.60;99.90
1590;DHT22;788;48.720;9.158;2022-11-04T10:19:33;12.80;99.90
1590;DHT22;788;48.720;9.158;2022-11-04T10:22:54;12.90;99.90
1590;DHT22;788;48.720;9.158;2022-11-04T10:25:37;13.10;99.90
1590;DHT22;788;48.720;9.158;2022-11-04T10:28:07;13.20;99.90
1590;DHT22;788;48.720;9.158;2022-11-04T10:30:40;13.30;99.90
1590;DHT22;788;48.720;9.158;2022-11-04T10:33:12;13.50;99.90
1590;DHT22;788;48.720;9.158;2022-11-04T10:35:45;13.60;99.90
1590;DHT22;788;48.720;9.158;2022-11-04T10:38:17;13.70;99.90
1590;DHT22;788;48.720;9.158;2022-11-04T10:40:47;13.80;99.90
1590;DHT22;788;48.720;9.158;2022-11-04T10:43:17;14.00;99.90
1590;DHT22;788;48.720;9.158;2022-11-04T10:45:57;14.00;99.90
1590;DHT22;788;48.720;9.158;2022-11-04T10:48:31;13.90;99.90
1590;DHT22;788;48.720;9.158;2022-11-04T10:50:59;13.90;99.90
1590;DHT22;788;48.720;9.158;2022-11-04T10:53:29;14.00;99.90
1590;DHT22;788;48.720;9.158;2022-11-04T10:56:02;14.10;99.90
1590;DHT22;788;48.720;9.158;2022-11-04T10:58:31;14.10;99.90
1590;DHT22;788;48.720;9.158;2022-11-04T11:01:24;14.10;99.90
1590;DHT22;788;48.720;9.158;2022-11-04T11:03:51;14.20;99.90
1590;DHT22;788;48.720;9.158;2022-11-04T11:06:27;14.10;99.90
1590;DHT22;788;48.720;9.158;2022-11-04T11:08:57;13.80;99.50
1590;DHT22;788;48.720;9.158;2022-11-04T11:11:57;13.90;99.90
1590;DHT22;788;48.720;9.158;2022-11-04T11:18:16;13.40;99.90
1590;DHT22;788;48.720;9.158;2022-11-04T11:20:49;13.40;99.80
1590;DHT22;788;48.720;9.158;2022-11-04T11:23:34;13.40;99.90
1590;DHT22;788;48.720;9.158;2022-11-04T11:26:03;13.40;99.90
1590;DHT22;788;48.720;9.158;2022-11-04T11:28:32;13.30;99.90
1590;DHT22;788;48.720;9.158;2022-11-04T11:31:04;13.20;99.90
1590;DHT22;788;48.720;9.158;2022-11-04T11:33:36;13.20;99.90
1590;DHT22;788;48.720;9.158;2022-11-04T11:36:13;13.30;99.90
1590;DHT22;788;48.720;9.158;2022-11-04T11:38:52;13.40;99.90
1590;DHT22;788;48.720;9.158;2022-11-04T11:41:26;13.50;99.90
1590;DHT22;788;48.720;9.158;2022-11-04T11:44:17;13.50;99.90
1590;DHT22;788;48.720;9.158;2022-11-04T11:46:50;13.70;99.90
1590;DHT22;788;48.720;9.158;2022-11-04T11:49:25;13.60;99.70
1590;DHT22;788;48.720;9.158;2022-11-04T11:51:53;13.60;99.90
1590;DHT22;788;48.720;9.158;2022-11-04T11:54:27;13.60;99.20
1590;DHT22;788;48.720;9.158;2022-11-04T11:56:59;13.50;98.90
1590;DHT22;788;48.720;9.158;2022-11-04T11:59:34;13.70;99.50
1590;DHT22;788;48.720;9.158;2022-11-04T12:02:26;13.90;99.20
1590;DHT22;788;48.720;9.158;2022-11-04T12:04:57;14.10;99.40
1590;DHT22;788;48.720;9.158;2022-11-04T12:07:32;14.70;99.90
1590;DHT22;788;48.720;9.158;2022-11-04T12:10:10;15.20;98.10
1590;DHT22;788;48.720;9.158;2022-11-04T12:12:54;15.30;97.00
1590;DHT22;788;48.720;9.158;2022-11-04T12:15:31;15.00;97.00
1590;DHT22;788;48.720;9.158;2022-11-04T12:18:25;14.80;96.90
1590;DHT22;788;48.720;9.158;2022-11-04T12:21:01;14.70;97.30
1590;DHT22;788;48.720;9.158;2022-11-04T12:23:38;14.70;97.50
1590;DHT22;788;48.720;9.158;2022-11-04T12:26:17;14.50;98.00
1590;DHT22;788;48.720;9.158;2022-11-04T12:29:04;14.50;98.10
1590;DHT22;788;48.720;9.158;2022-11-04T12:31:42;14.30;98.40
1590;DHT22;788;48.720;9.158;2022-11-04T12:34:19;14.10;98.80
1590;DHT22;788;48.720;9.158;2022-11-04T12:37:07;13.90;99.00
1590;DHT22;788;48.720;9.158;2022-11-04T12:40:11;14.10;98.90
1590;DHT22;788;48.720;9.158;2022-11-04T12:46:11;13.90;99.00
1590;DHT22;788;48.720;9.158;2022-11-04T12:49:26;13.80;99.50
1590;DHT22;788;48.720;9.158;2022-11-04T12:52:49;13.90;99.90
1590;DHT22;788;48.720;9.158;2022-11-04T12:55:27;14.10;99.60
1590;DHT22;788;48.720;9.158;2022-11-04T12:58:38;14.10;99.10
1590;DHT22;788;48.720;9.158;2022-11-04T13:01:10;14.20;99.10
1590;DHT22;788;48.720;9.158;2022-11-04T13:03:46;14.30;99.20
1590;DHT22;788;48.720;9.158;2022-11-04T13:06:17;14.50;98.50
1590;DHT22;788;48.720;9.158;2022-11-04T13:08:49;14.60;98.60
1590;DHT22;788;48.720;9.158;2022-11-04T13:11:19;14.50;99.10
1590;DHT22;788;48.720;9.158;2022-11-04T13:13:59;14.50;98.80
1590;DHT22;788;48.720;9.158;2022-11-04T13:16:29;14.80;99.60
1590;DHT22;788;48.720;9.158;2022-11-04T13:18:57;15.00;97.90
1590;DHT22;788;48.720;9.158;2022-11-04T13:21:26;15.10;97.90
1590;DHT22;788;48.720;9.158;2022-11-04T13:24:01;15.10;96.90
1590;DHT22;788;48.720;9.158;2022-11-04T13:26:30;15.10;97.40
1590;DHT22;788;48.720;9.158;2022-11-04T13:29:09;14.80;97.40
1590;DHT22;788;48.720;9.158;2022-11-04T13:32:03;14.60;97.80
1590;DHT22;788;48.720;9.158;2022-11-04T13:35:14;14.40;98.00
1590;DHT22;788;48.720;9.158;2022-11-04T13:37:51;14.50;98.20
1590;DHT22;788;48.720;9.158;2022-11-04T13:40:26;14.20;98.10
1590;DHT22;788;48.720;9.158;2022-11-04T13:43:10;13.90;98.20
1590;DHT22;788;48.720;9.158;2022-11-04T13:45:58;13.30;99.00
1590;DHT22;788;48.720;9.158;2022-11-04T13:48:26;12.40;99.90
1590;DHT22;788;48.720;9.158;2022-11-04T13:51:33;11.50;99.90
1590;DHT22;788;48.720;9.158;2022-11-04T14:04:38;9.30;99.90
1590;DHT22;788;48.720;9.158;2022-11-04T14:11:13;9.40;99.90
1590;DHT22;788;48.720;9.158;2022-11-04T14:14:20;9.30;99.90
1590;DHT22;788;48.720;9.158;2022-11-04T14:20:43;9.50;99.90
1590;DHT22;788;48.720;9.158;2022-11-04T14:23:41;9.40;99.90
1590;DHT22;788;48.720;9.158;2022-11-04T14:26:12;9.60;99.90
1590;DHT22;788;48.720;9.158;2022-11-04T14:28:46;9.70;99.90
1590;DHT22;788;48.720;9.158;2022-11-04T14:31:33;9.80;99.90
1590;DHT22;788;48.720;9.158;2022-11-04T14:34:03;9.80;99.90
1590;DHT22;788;48.720;9.158;2022-11-04T14:36:45;9.70;99.90
1590;DHT22;788;48.720;9.158;2022-11-04T14:39:22;9.70;99.90
1590;DHT22;788;48.720;9.158;2022-11-04T14:45:25;9.50;99.90
1590;DHT22;788;48.720;9.158;2022-11-04T14:48:20;9.60;99.90
1590;DHT22;788;48.720;9.158;2022-11-04T14:50:50;9.50;99.90
1590;DHT22;788;48.720;9.158;2022-11-04T14:53:23;9.50;99.90
1590;DHT22;788;48.720;9.158;2022-11-04T14:56:02;9.50;99.90
1590;DHT22;788;48.720;9.158;2022-11-04T14:58:29;9.60;99.90
1590;DHT22;788;48.720;9.158;2022-11-04T15:00:58;9.70;99.90
1590;DHT22;788;48.720;9.158;2022-11-04T15:03:28;10.00;99.90
1590;DHT22;788;48.720;9.158;2022-11-04T15:05:59;10.10;99.90
1590;DHT22;788;48.720;9.158;2022-11-04T15:08:31;10.20;99.90
1590;DHT22;788;48.720;9.158;2022-11-04T15:11:01;10.20;99.90
1590;DHT22;788;48.720;9.158;2022-11-04T15:13:32;10.30;99.90
1590;DHT22;788;48.720;9.158;2022-11-04T15:16:03;10.40;99.90
1590;DHT22;788;48.720;9.158;2022-11-04T15:18:32;10.60;99.90
1590;DHT22;788;48.720;9.158;2022-11-04T15:21:02;10.70;99.90
1590;DHT22;788;48.720;9.158;2022-11-04T15:23:33;10.70;99.90
1590;DHT22;788;48.720;9.158;2022-11-04T15:26:01;10.90;99.90
1590;DHT22;788;48.720;9.158;2022-11-04T15:28:29;10.90;99.90
1590;DHT22;788;48.720;9.158;2022-11-04T15:31:05;10.80;99.90
1590;DHT22;788;48.720;9.158;2022-11-04T15:33:37;10.90;99.90
1590;DHT22;788;48.720;9.158;2022-11-04T15:36:11;10.90;99.90
1590;DHT22;788;48.720;9.158;2022-11-04T15:38:45;10.70;99.90
1590;DHT22;788;48.720;9.158;2022-11-04T15:41:13;10.70;99.90
1590;DHT22;788;48.720;9.158;2022-11-04T15:43:58;10.60;99.90
1590;DHT22;788;48.720;9.158;2022-11-04T15:46:27;10.40;99.90
1590;DHT22;788;48.720;9.158;2022-11-04T15:49:02;10.40;99.90
1590;DHT22;788;48.720;9.158;2022-11-04T15:51:34;10.40;99.90
1590;DHT22;788;48.720;9.158;2022-11-04T15:54:06;10.30;99.90
1590;DHT22;788;48.720;9.158;2022-11-04T15:56:38;10.30;99.90
1590;DHT22;788;48.720;9.158;2022-11-04T15:59:08;10.40;99.90
1590;DHT22;788;48.720;9.158;2022-11-04T16:01:43;10.30;99.90
1590;DHT22;788;48.720;9.158;2022-11-04T16:04:11;10.20;99.90
1590;DHT22;788;48.720;9.158;2022-11-04T16:06:39;10.20;99.90
1590;DHT22;788;48.720;9.158;2022-11-04T16:26:25;10.50;99.90
1590;DHT22;788;48.720;9.158;2022-11-04T16:29:13;10.50;99.90
1590;DHT22;788;48.720;9.158;2022-11-04T16:32:50;10.50;99.90
1590;DHT22;788;48.720;9.158;2022-11-04T16:36:08;10.60;99.90
1590;DHT22;788;48.720;9.158;2022-11-04T16:42:22;10.50;99.90
1590;DHT22;788;48.720;9.158;2022-11-04T16:45:22;10.40;99.90
1590;DHT22;788;48.720;9.158;2022-11-04T16:48:17;10.40;99.90
1590;DHT22;788;48.720;9.158;2022-11-04T16:51:40;10.40;99.90
1590;DHT22;788;48.720;9.158;2022-11-04T16:54:07;10.20;99.90
1590;DHT22;788;48.720;9.158;2022-11-04T16:56:35;10.20;99.90
1590;DHT22;788;48.720;9.158;2022-11-04T16:59:03;10.10;99.90
1590;DHT22;788;48.720;9.158;2022-11-04T17:01:30;10.00;99.90
1590;DHT22;788;48.720;9.158;2022-11-04T17:03:57;10.00;99.90
1590;DHT22;788;48.720;9.158;2022-11-04T17:06:24;10.10;99.90
1590;DHT22;788;48.720;9.158;2022-11-04T17:08:50;10.10;99.90
1590;DHT22;788;48.720;9.158;2022-11-04T17:11:17;10.00;99.90
1590;DHT22;788;48.720;9.158;2022-11-04T17:13:44;9.90;99.90
1590;DHT22;788;48.720;9.158;2022-11-04T17:16:12;9.90;99.90
1590;DHT22;788;48.720;9.158;2022-11-04T17:18:40;9.90;99.90
1590;DHT22;788;48.720;9.158;2022-11-04T17:21:10;9.90;99.90
1590;DHT22;788;48.720;9.158;2022-11-04T17:23:37;10.00;99.90
1590;DHT22;788;48.720;9.158;2022-11-04T17:26:04;10.10;99.90
1590;DHT22;788;48.720;9.158;2022-11-04T17:28:31;10.10;99.90
1590;DHT22;788;48.720;9.158;2022-11-04T17:30:58;10.20;99.90
1590;DHT22;788;48.720;9.158;2022-11-04T17:33:26;10.20;99.90
1590;DHT22;788;48.720;9.158;2022-11-04T17:35:53;10.20;99.90
1590;DHT22;788;48.720;9.158;2022-11-04T17:38:20;10.30;99.90
1590;DHT22;788;48.720;9.158;2022-11-04T17:40:46;10.30;99.90
1590;DHT22;788;48.720;9.158;2022-11-04T17:43:30;10.20;99.90
1590;DHT22;788;48.720;9.158;2022-11-04T17:46:30;10.30;99.90
1590;DHT22;788;48.720;9.158;2022-11-04T17:49:06;10.30;99.90
1590;DHT22;788;48.720;9.158;2022-11-04T17:51:34;10.30;99.90
1590;DHT22;788;48.720;9.158;2022-11-04T17:54:02;10.20;99.90
1590;DHT22;788;48.720;9.158;2022-11-04T17:56:29;9.90;99.90
1590;DHT22;788;48.720;9.158;2022-11-04T17:58:57;9.80;99.90
1590;DHT22;788;48.720;9.158;2022-11-04T18:01:24;9.80;99.90
1590;DHT22;788;48.720;9.158;2022-11-04T18:03:52;9.90;99.90
1590;DHT22;788;48.720;9.158;2022-11-04T18:06:21;9.90;99.90
1590;DHT22;788;48.720;9.158;2022-11-04T18:08:51;9.90;99.90
1590;DHT22;788;48.720;9.158;2022-11-04T18:11:18;9.80;99.90
1590;DHT22;788;48.720;9.158;2022-11-04T18:14:03;9.80;99.90
1590;DHT22;788;48.720;9.158;2022-11-04T18:16:30;9.80;99.90
1590;DHT22;788;48.720;9.158;2022-11-04T18:18:57;9.80;99.90
1590;DHT22;788;48.720;9.158;2022-11-04T18:21:25;9.80;99.90
1590;DHT22;788;48.720;9.158;2022-11-04T18:23:54;9.80;99.90
1590;DHT22;788;48.720;9.158;2022-11-04T18:26:21;9.90;99.90
1590;DHT22;788;48.720;9.158;2022-11-04T18:28:48;9.80;99.90
1590;DHT22;788;48.720;9.158;2022-11-04T18:31:20;9.80;99.90
1590;DHT22;788;48.720;9.158;2022-11-04T18:33:48;9.80;99.90
1590;DHT22;788;48.720;9.158;2022-11-04T18:36:15;9.80;99.90
1590;DHT22;788;48.720;9.158;2022-11-04T18:38:43;9.70;99.90
1590;DHT22;788;48.720;9.158;2022-11-04T18:41:10;9.50;99.90
1590;DHT22;788;48.720;9.158;2022-11-04T18:43:37;9.50;99.90
1590;DHT22;788;48.720;9.158;2022-11-04T18:46:08;9.60;99.90
1590;DHT22;788;48.720;9.158;2022-11-04T18:48:35;9.60;99.90
1590;DHT22;788;48.720;9.158;2022-11-04T18:51:04;9.60;99.90